createdAt,value
2022-09-25T00:01:29.811Z,19.92
2022-09-25T00:03:58.098Z,13.43
2022-09-25T00:06:28.583Z,13.60
2022-09-25T00:08:59.708Z,12.88
2022-09-25T00:11:31.109Z,11.65
2022-09-25T00:14:01.040Z,12.57
2022-09-25T00:16:32.074Z,10.40
2022-09-25T00:19:18.381Z,10.30
2022-09-25T00:21:52.088Z,13.20
2022-09-25T00:24:22.482Z,19.40
2022-09-25T00:26:51.301Z,14.55
2022-09-25T00:29:21.552Z,10.38
2022-09-25T00:31:49.699Z,11.75
2022-09-25T00:34:17.923Z,15.40
2022-09-25T00:36:46.156Z,9.23
2022-09-25T00:39:14.327Z,10.48
2022-09-25T00:41:43.932Z,13.23
2022-09-25T00:44:53.336Z,12.63
2022-09-25T00:47:33.886Z,10.50
2022-09-25T00:50:05.922Z,11.77
2022-09-25T00:52:34.221Z,16.50
2022-09-25T00:55:06.820Z,22.85
2022-09-25T00:57:40.602Z,10.85
2022-09-25T01:00:12.617Z,8.73
2022-09-25T01:02:43.997Z,9.80
2022-09-25T01:05:15.669Z,10.75
2022-09-25T01:07:47.971Z,12.65
2022-09-25T01:10:17.625Z,11.15
2022-09-25T01:12:49.656Z,12.60
2022-09-25T01:15:19.748Z,12.13
2022-09-25T01:17:58.027Z,12.82
2022-09-25T01:20:42.093Z,10.85
2022-09-25T01:23:18.649Z,12.25
2022-09-25T01:26:01.569Z,11.23
2022-09-25T01:29:05.883Z,10.27
2022-09-25T01:31:38.954Z,13.88
2022-09-25T01:34:15.632Z,10.75
2022-09-25T01:36:49.845Z,10.73
2022-09-25T01:39:27.158Z,13.10
2022-09-25T01:41:59.953Z,11.27
2022-09-25T01:44:33.617Z,12.20
2022-09-25T01:47:08.638Z,10.90
2022-09-25T01:49:39.909Z,9.32
2022-09-25T01:52:15.125Z,10.85
2022-09-25T01:54:47.159Z,8.95
2022-09-25T01:57:21.022Z,9.40
2022-09-25T01:59:55.338Z,9.98
2022-09-25T02:02:27.416Z,8.40
2022-09-25T02:05:00.508Z,8.88
2022-09-25T02:07:32.006Z,9.60
2022-09-25T02:10:04.888Z,9.60
2022-09-25T02:12:38.264Z,11.32
2022-09-25T02:15:14.660Z,10.10
2022-09-25T02:18:05.130Z,10.27
2022-09-25T02:20:36.546Z,11.30
2022-09-25T02:23:14.254Z,10.30
2022-09-25T02:25:46.189Z,9.30
2022-09-25T02:28:14.371Z,8.23
2022-09-25T02:30:46.090Z,8.25
2022-09-25T02:33:14.408Z,9.25
2022-09-25T02:35:42.889Z,9.60
2022-09-25T02:38:11.188Z,11.70
2022-09-25T02:40:45.376Z,9.60
2022-09-25T02:43:26.714Z,13.63
2022-09-25T02:46:08.628Z,12.02
2022-09-25T02:48:46.843Z,8.88
2022-09-25T02:51:21.848Z,18.38
2022-09-25T02:53:55.145Z,8.55
2022-09-25T02:56:30.267Z,8.25
2022-09-25T02:59:02.456Z,9.95
2022-09-25T03:01:35.247Z,9.13
2022-09-25T03:04:06.694Z,7.65
2022-09-25T03:06:35.253Z,7.53
2022-09-25T03:09:04.427Z,9.40
2022-09-25T03:11:32.689Z,8.57
2022-09-25T03:14:02.715Z,9.05
2022-09-25T03:16:37.370Z,11.30
2022-09-25T03:19:05.645Z,8.10
2022-09-25T03:21:33.984Z,9.00
2022-09-25T03:24:02.244Z,6.85
2022-09-25T03:26:30.644Z,8.05
2022-09-25T03:29:02.481Z,7.50
2022-09-25T03:31:31.581Z,8.82
2022-09-25T03:34:01.838Z,12.93
2022-09-25T03:36:31.947Z,8.25
2022-09-25T03:39:00.660Z,8.05
2022-09-25T03:41:30.958Z,6.82
2022-09-25T03:44:00.060Z,11.43
2022-09-25T03:46:29.567Z,6.60
2022-09-25T03:48:58.804Z,7.82
2022-09-25T03:51:30.316Z,8.13
2022-09-25T03:53:58.986Z,7.57
2022-09-25T03:56:29.882Z,6.63
2022-09-25T03:58:59.492Z,8.55
2022-09-25T04:01:29.070Z,7.45
2022-09-25T04:03:57.530Z,9.20
2022-09-25T04:06:27.965Z,12.13
2022-09-25T04:08:56.378Z,9.90
2022-09-25T04:11:25.401Z,12.63
2022-09-25T04:13:53.793Z,7.60
2022-09-25T04:16:22.574Z,8.95
2022-09-25T04:18:51.364Z,10.38
2022-09-25T04:21:19.606Z,9.00
2022-09-25T04:24:03.064Z,9.80
2022-09-25T04:26:31.627Z,9.32
2022-09-25T04:29:01.698Z,9.90
2022-09-25T04:31:29.979Z,14.93
2022-09-25T04:33:57.319Z,13.05
2022-09-25T04:36:25.564Z,12.32
2022-09-25T04:38:55.109Z,10.63
2022-09-25T04:41:23.252Z,11.35
2022-09-25T04:43:51.384Z,10.95
2022-09-25T04:46:22.438Z,13.80
2022-09-25T04:48:51.244Z,17.23
2022-09-25T04:51:19.801Z,18.20
2022-09-25T04:53:47.927Z,20.67
2022-09-25T04:56:17.461Z,15.63
2022-09-25T04:58:47.463Z,18.15
2022-09-25T05:01:16.496Z,19.30
2022-09-25T05:03:44.932Z,18.10
2022-09-25T05:06:13.093Z,19.83
2022-09-25T05:08:41.176Z,18.75
2022-09-25T05:11:09.363Z,20.00
2022-09-25T05:13:38.856Z,22.67
2022-09-25T05:16:07.293Z,19.23
2022-09-25T05:18:35.427Z,15.18
2022-09-25T05:21:05.088Z,16.83
2022-09-25T05:23:33.261Z,12.60
2022-09-25T05:26:02.408Z,14.40
2022-09-25T05:28:31.135Z,12.60
2022-09-25T05:31:03.861Z,10.93
2022-09-25T05:33:33.186Z,17.17
2022-09-25T05:36:02.749Z,15.57
2022-09-25T05:38:32.967Z,9.85
2022-09-25T05:41:04.458Z,14.90
2022-09-25T05:43:33.120Z,12.32
2022-09-25T05:46:02.825Z,15.27
2022-09-25T05:48:31.017Z,11.63
2022-09-25T05:51:00.270Z,11.13
2022-09-25T05:53:31.003Z,11.57
2022-09-25T05:56:00.673Z,11.68
2022-09-25T05:58:30.719Z,13.85
2022-09-25T06:01:04.185Z,12.20
2022-09-25T06:03:32.693Z,14.27
2022-09-25T06:06:01.338Z,14.25
2022-09-25T06:08:31.612Z,11.55
2022-09-25T06:11:00.790Z,12.02
2022-09-25T06:13:31.302Z,14.38
2022-09-25T06:16:00.052Z,14.07
2022-09-25T06:18:29.626Z,11.82
2022-09-25T06:21:02.623Z,14.63
2022-09-25T06:23:31.592Z,14.40
2022-09-25T06:26:03.773Z,12.05
2022-09-25T06:28:32.234Z,9.63
2022-09-25T06:31:02.238Z,14.27
2022-09-25T06:33:32.479Z,17.80
2022-09-25T06:36:02.228Z,14.73
2022-09-25T06:38:30.471Z,14.35
2022-09-25T06:41:00.799Z,14.93
2022-09-25T06:43:30.320Z,16.08
2022-09-25T06:46:02.463Z,14.02
2022-09-25T06:48:32.323Z,16.52
2022-09-25T06:51:02.427Z,15.73
2022-09-25T06:53:31.647Z,14.15
2022-09-25T06:56:00.881Z,18.40
2022-09-25T06:58:30.670Z,15.48
2022-09-25T07:00:59.771Z,15.70
2022-09-25T07:03:45.437Z,14.07
2022-09-25T07:06:17.088Z,14.32
2022-09-25T07:08:46.388Z,13.07
2022-09-25T07:11:16.388Z,10.32
2022-09-25T07:13:45.053Z,13.70
2022-09-25T07:16:15.219Z,13.80
2022-09-25T07:18:43.990Z,17.45
2022-09-25T07:21:15.135Z,13.38
2022-09-25T07:23:43.865Z,11.13
2022-09-25T07:26:13.991Z,21.40
2022-09-25T07:28:43.768Z,15.68
2022-09-25T07:31:14.091Z,13.95
2022-09-25T07:33:42.317Z,14.70
2022-09-25T07:36:10.484Z,15.93
2022-09-25T07:38:40.544Z,15.95
2022-09-25T07:41:11.203Z,14.35
2022-09-25T07:43:40.675Z,17.92
2022-09-25T07:46:08.856Z,13.90
2022-09-25T07:48:37.435Z,14.40
2022-09-25T07:51:07.857Z,10.63
2022-09-25T07:53:35.968Z,12.57
2022-09-25T07:56:07.186Z,19.48
2022-09-25T07:58:36.348Z,14.63
2022-09-25T08:01:06.470Z,15.32
2022-09-25T08:03:35.094Z,11.52
2022-09-25T08:06:04.885Z,16.45
2022-09-25T08:08:34.584Z,14.10
2022-09-25T08:11:03.491Z,16.58
2022-09-25T08:13:34.317Z,16.20
2022-09-25T08:16:04.387Z,15.87
2022-09-25T08:18:32.728Z,15.47
2022-09-25T08:21:03.306Z,13.47
2022-09-25T08:23:31.569Z,20.13
2022-09-25T08:26:00.145Z,14.03
2022-09-25T08:28:28.941Z,12.40
2022-09-25T08:30:59.393Z,12.67
2022-09-25T08:33:27.683Z,12.50
2022-09-25T08:35:57.652Z,15.00
2022-09-25T08:38:26.452Z,11.90
2022-09-25T08:40:59.632Z,12.23
2022-09-25T08:43:28.915Z,11.80
2022-09-25T08:46:19.118Z,13.87
2022-09-25T08:49:06.281Z,12.63
2022-09-25T08:51:38.617Z,11.37
2022-09-25T08:54:07.382Z,10.93
2022-09-25T08:56:37.618Z,10.20
2022-09-25T08:59:12.189Z,11.07
2022-09-25T09:01:53.492Z,8.07
2022-09-25T09:04:28.171Z,8.93
2022-09-25T09:07:25.110Z,10.70
2022-09-25T09:09:54.527Z,9.67
2022-09-25T09:12:29.212Z,9.40
2022-09-25T09:15:08.044Z,8.13
2022-09-25T09:17:44.507Z,10.50
2022-09-25T09:20:19.293Z,9.43
2022-09-25T09:22:51.003Z,12.40
2022-09-25T09:25:32.925Z,18.30
2022-09-25T09:28:19.212Z,10.67
2022-09-25T09:30:54.657Z,10.73
2022-09-25T09:33:41.608Z,14.23
2022-09-25T09:36:19.178Z,11.53
2022-09-25T09:38:55.180Z,11.50
2022-09-25T09:41:36.209Z,17.23
2022-09-25T09:44:25.569Z,10.97
2022-09-25T09:47:02.942Z,9.53
2022-09-25T09:49:38.739Z,8.10
2022-09-25T09:52:12.744Z,7.80
2022-09-25T09:54:45.896Z,9.50
2022-09-25T09:57:19.751Z,6.77
2022-09-25T09:59:53.482Z,7.40
2022-09-25T10:02:35.872Z,6.23
2022-09-25T10:05:11.051Z,5.47
2022-09-25T10:07:43.127Z,6.50
2022-09-25T10:10:15.208Z,5.43
2022-09-25T10:12:47.399Z,9.00
2022-09-25T10:15:20.597Z,6.20
2022-09-25T10:17:49.247Z,9.43
2022-09-25T10:20:21.994Z,7.10
2022-09-25T10:22:56.464Z,8.60
2022-09-25T10:25:38.246Z,7.70
2022-09-25T10:28:29.020Z,7.47
2022-09-25T10:30:59.010Z,10.03
2022-09-25T10:33:29.182Z,12.53
2022-09-25T10:35:58.865Z,7.93
2022-09-25T10:38:41.529Z,9.47
2022-09-25T10:41:13.197Z,10.13
2022-09-25T10:43:55.327Z,7.73
2022-09-25T10:46:43.707Z,10.77
2022-09-25T10:49:34.952Z,9.00
2022-09-25T10:52:07.385Z,12.07
2022-09-25T10:54:41.891Z,12.50
2022-09-25T10:57:18.699Z,10.20
2022-09-25T10:59:50.237Z,7.73
2022-09-25T11:02:32.768Z,11.37
2022-09-25T11:05:01.938Z,9.13
2022-09-25T11:07:33.023Z,10.97
2022-09-25T11:10:01.219Z,11.10
2022-09-25T11:12:30.535Z,10.90
2022-09-25T11:15:02.125Z,10.17
2022-09-25T11:17:33.720Z,8.80
2022-09-25T11:20:20.636Z,10.30
2022-09-25T11:22:56.875Z,9.90
2022-09-25T11:25:32.148Z,10.70
2022-09-25T11:28:06.917Z,10.63
2022-09-25T11:30:42.446Z,8.77
2022-09-25T11:33:17.809Z,8.90
2022-09-25T11:35:51.535Z,8.83
2022-09-25T11:38:44.236Z,9.00
2022-09-25T11:41:23.092Z,18.70
2022-09-25T11:43:59.769Z,16.70
2022-09-25T11:46:37.293Z,12.43
2022-09-25T11:49:15.768Z,13.20
2022-09-25T11:52:16.467Z,13.27
2022-09-25T11:55:08.461Z,14.80
2022-09-25T11:57:43.573Z,13.73
2022-09-25T12:00:21.352Z,11.47
2022-09-25T12:03:14.520Z,13.10
2022-09-25T12:05:54.157Z,20.80
2022-09-25T12:08:33.752Z,12.80
2022-09-25T12:11:12.644Z,9.50
2022-09-25T12:13:49.251Z,10.13
2022-09-25T12:16:23.007Z,11.10
2022-09-25T12:19:02.715Z,15.57
2022-09-25T12:21:39.803Z,18.03
2022-09-25T12:24:17.228Z,15.33
2022-09-25T12:26:54.295Z,11.23
2022-09-25T12:29:36.132Z,12.50
2022-09-25T12:32:10.346Z,13.47
2022-09-25T12:34:59.951Z,15.80
2022-09-25T12:37:35.162Z,11.57
2022-09-25T12:40:12.553Z,34.47
2022-09-25T12:42:48.156Z,15.65
2022-09-25T12:45:23.005Z,11.27
2022-09-25T12:48:04.175Z,17.73
2022-09-25T12:50:36.282Z,19.05
2022-09-25T12:53:14.924Z,16.55
2022-09-25T12:55:47.354Z,18.60
2022-09-25T12:58:24.458Z,21.35
2022-09-25T13:00:59.189Z,22.23
2022-09-25T13:03:37.426Z,16.38
2022-09-25T13:06:11.388Z,24.35
2022-09-25T13:08:47.575Z,30.42
2022-09-25T13:11:22.393Z,26.40
2022-09-25T13:13:55.305Z,26.17
2022-09-25T13:16:23.642Z,17.73
2022-09-25T13:19:11.527Z,25.48
2022-09-25T13:21:41.914Z,18.13
2022-09-25T13:24:15.972Z,15.43
2022-09-25T13:26:47.744Z,16.30
2022-09-25T13:29:28.089Z,17.45
2022-09-25T13:32:05.369Z,15.80
2022-09-25T13:34:38.544Z,15.48
2022-09-25T13:37:10.237Z,13.75
2022-09-25T13:39:59.371Z,13.73
2022-09-25T13:42:30.941Z,17.00
2022-09-25T13:45:07.967Z,13.88
2022-09-25T13:48:07.265Z,12.57
2022-09-25T13:50:46.893Z,11.60
2022-09-25T13:53:24.933Z,12.80
2022-09-25T13:56:14.912Z,12.30
2022-09-25T13:59:23.315Z,9.33
2022-09-25T14:01:59.956Z,12.70
2022-09-25T14:04:36.128Z,14.77
2022-09-25T14:07:14.412Z,19.20
2022-09-25T14:09:48.629Z,13.70
2022-09-25T14:12:29.129Z,15.67
2022-09-25T14:15:01.479Z,16.10
2022-09-25T14:17:33.216Z,17.15
2022-09-25T14:20:04.515Z,28.48
2022-09-25T14:22:46.539Z,18.63
2022-09-25T14:25:33.186Z,26.02
2022-09-25T14:28:02.611Z,14.68
2022-09-25T14:30:33.085Z,13.75
2022-09-25T14:33:18.014Z,12.70
2022-09-25T14:35:53.750Z,14.27
2022-09-25T14:38:44.523Z,11.48
2022-09-25T14:41:34.856Z,15.00
2022-09-25T14:44:25.915Z,9.73
2022-09-25T14:46:56.938Z,9.07
2022-09-25T14:49:30.230Z,11.85
2022-09-25T14:52:03.481Z,8.13
2022-09-25T14:54:38.078Z,8.30
2022-09-25T14:57:09.056Z,9.63
2022-09-25T14:59:42.259Z,8.30
2022-09-25T15:02:18.344Z,7.70
2022-09-25T15:04:47.905Z,9.23
2022-09-25T15:07:17.922Z,7.85
2022-09-25T15:09:51.095Z,9.60
2022-09-25T15:12:21.943Z,7.38
2022-09-25T15:15:07.620Z,6.18
2022-09-25T15:17:45.323Z,9.90
2022-09-25T15:20:19.517Z,6.65
2022-09-25T15:22:53.974Z,6.53
2022-09-25T15:25:25.780Z,6.20
2022-09-25T15:27:54.318Z,5.60
2022-09-25T15:30:27.175Z,6.57
2022-09-25T15:33:00.751Z,5.65
2022-09-25T15:35:32.339Z,5.90
2022-09-25T15:38:07.139Z,5.10
2022-09-25T15:40:35.504Z,5.40
2022-09-25T15:43:03.908Z,6.82
2022-09-25T15:45:45.840Z,5.65
2022-09-25T15:48:24.476Z,9.23
2022-09-25T15:50:55.464Z,8.23
2022-09-25T15:53:27.296Z,9.85
2022-09-25T15:56:15.102Z,7.85
2022-09-25T15:58:47.091Z,6.28
2022-09-25T16:01:36.866Z,7.03
2022-09-25T16:04:25.571Z,7.45
2022-09-25T16:06:55.612Z,7.95
2022-09-25T16:09:30.374Z,7.15
2022-09-25T16:12:20.359Z,8.63
2022-09-25T16:14:49.437Z,11.35
2022-09-25T16:17:24.221Z,8.43
2022-09-25T16:20:03.689Z,15.02
2022-09-25T16:22:39.183Z,16.83
2022-09-25T16:25:18.246Z,14.85
2022-09-25T16:27:47.838Z,15.40
2022-09-25T16:30:22.327Z,13.57
2022-09-25T16:32:53.331Z,9.70
2022-09-25T16:35:26.037Z,9.38
2022-09-25T16:37:55.612Z,10.32
2022-09-25T16:40:28.980Z,11.75
2022-09-25T16:42:59.440Z,12.48
2022-09-25T16:45:29.810Z,18.17
2022-09-25T16:47:59.427Z,21.70
2022-09-25T16:50:32.135Z,19.40
2022-09-25T16:53:03.587Z,17.67
2022-09-25T16:55:34.332Z,15.43
2022-09-25T16:58:04.207Z,19.98
2022-09-25T17:00:32.403Z,20.75
2022-09-25T17:03:01.963Z,25.65
2022-09-25T17:05:32.327Z,22.33
2022-09-25T17:08:14.672Z,15.35
2022-09-25T17:10:43.019Z,20.80
2022-09-25T17:13:14.799Z,16.70
2022-09-25T17:15:43.117Z,16.33
2022-09-25T17:18:17.548Z,27.80
2022-09-25T17:20:46.183Z,16.00
2022-09-25T17:23:17.732Z,18.00
2022-09-25T17:25:49.220Z,17.25
2022-09-25T17:28:17.918Z,16.67
2022-09-25T17:30:46.706Z,14.65
2022-09-25T17:33:17.896Z,19.77
2022-09-25T17:35:50.026Z,21.25
2022-09-25T17:38:20.139Z,13.38
2022-09-25T17:40:52.367Z,15.63
2022-09-25T17:43:21.287Z,17.05
2022-09-25T17:45:51.551Z,15.38
2022-09-25T17:48:24.081Z,15.80
2022-09-25T17:50:53.651Z,17.55
2022-09-25T17:53:25.133Z,20.90
2022-09-25T17:55:54.102Z,18.10
2022-09-25T17:58:25.656Z,20.27
2022-09-25T18:00:55.109Z,19.95
2022-09-25T18:03:23.455Z,18.27
2022-09-25T18:05:51.543Z,23.60
2022-09-25T18:08:21.377Z,16.88
2022-09-25T18:10:55.748Z,18.65
2022-09-25T18:13:24.537Z,26.98
2022-09-25T18:15:55.602Z,26.30
2022-09-25T18:18:23.745Z,33.72
2022-09-25T18:21:09.899Z,26.98
2022-09-25T18:23:39.086Z,23.95
2022-09-25T18:26:10.666Z,26.35
2022-09-25T18:28:39.145Z,28.13
2022-09-25T18:31:08.454Z,29.30
2022-09-25T18:33:37.333Z,32.15
2022-09-25T18:36:06.100Z,39.30
2022-09-25T18:38:36.873Z,39.13
2022-09-25T18:41:05.164Z,44.53
2022-09-25T18:43:35.227Z,43.00
2022-09-25T18:46:07.151Z,42.97
2022-09-25T18:48:37.482Z,38.10
2022-09-25T18:51:07.812Z,43.30
2022-09-25T18:53:37.651Z,39.28
2022-09-25T18:56:06.665Z,37.55
2022-09-25T18:58:36.554Z,32.13
2022-09-25T19:01:07.742Z,30.10
2022-09-25T19:03:40.754Z,27.58
2022-09-25T19:06:09.567Z,28.42
2022-09-25T19:08:39.171Z,32.28
2022-09-25T19:11:13.919Z,26.15
2022-09-25T19:13:47.304Z,31.08
2022-09-25T19:16:21.325Z,27.98
2022-09-25T19:18:53.265Z,29.80
2022-09-25T19:21:22.672Z,31.70
2022-09-25T19:23:54.554Z,32.53
2022-09-25T19:26:26.823Z,30.67
2022-09-25T19:28:56.617Z,32.33
2022-09-25T19:31:26.625Z,26.65
2022-09-25T19:33:56.311Z,34.20
2022-09-25T19:36:26.965Z,32.00
2022-09-25T19:38:57.720Z,35.97
2022-09-25T19:41:29.877Z,31.80
2022-09-25T19:44:01.613Z,39.47
2022-09-25T19:46:34.098Z,42.75
2022-09-25T19:49:02.323Z,45.13
2022-09-25T19:51:30.749Z,57.28
2022-09-25T19:54:01.507Z,44.83
2022-09-25T19:56:29.824Z,43.28
2022-09-25T19:58:59.358Z,49.38
2022-09-25T20:01:30.428Z,57.97
2022-09-25T20:03:58.817Z,51.50
2022-09-25T20:06:28.188Z,55.35
2022-09-25T20:08:59.080Z,49.13
2022-09-25T20:11:27.730Z,59.90
2022-09-25T20:13:57.239Z,50.75
2022-09-25T20:16:29.135Z,50.25
2022-09-25T20:19:00.245Z,53.55
2022-09-25T20:21:30.157Z,61.65
2022-09-25T20:24:00.108Z,62.08
2022-09-25T20:26:29.497Z,62.00
2022-09-25T20:28:59.474Z,52.97
2022-09-25T20:31:31.301Z,48.72
2022-09-25T20:33:59.647Z,52.70
2022-09-25T20:36:28.383Z,52.88
2022-09-25T20:38:57.942Z,48.55
2022-09-25T20:41:28.512Z,51.90
2022-09-25T20:43:57.843Z,52.60
2022-09-25T20:46:26.809Z,50.55
2022-09-25T20:48:58.539Z,46.42
2022-09-25T20:51:28.568Z,51.03
2022-09-25T20:53:58.300Z,49.22
2022-09-25T20:56:27.228Z,52.13
2022-09-25T20:58:56.706Z,44.47
2022-09-25T21:01:27.417Z,46.85
2022-09-25T21:04:01.739Z,40.78
2022-09-25T21:06:32.596Z,40.58
2022-09-25T21:09:02.096Z,44.97
2022-09-25T21:11:32.540Z,45.78
2022-09-25T21:14:02.784Z,46.88
2022-09-25T21:16:33.809Z,46.05
2022-09-25T21:19:05.363Z,49.50
2022-09-25T21:21:34.677Z,44.38
2022-09-25T21:24:03.488Z,44.20
2022-09-25T21:26:33.169Z,45.72
2022-09-25T21:29:03.424Z,42.83
2022-09-25T21:31:36.638Z,43.63
2022-09-25T21:34:07.697Z,45.05
2022-09-25T21:36:35.823Z,43.47
2022-09-25T21:39:04.694Z,42.97
2022-09-25T21:41:33.084Z,48.08
2022-09-25T21:44:02.638Z,43.03
2022-09-25T21:46:31.402Z,38.90
2022-09-25T21:49:01.866Z,43.15
2022-09-25T21:51:33.721Z,45.05
2022-09-25T21:54:02.483Z,46.10
2022-09-25T21:56:32.733Z,40.20
2022-09-25T21:59:08.659Z,35.55
2022-09-25T22:01:39.918Z,35.95
2022-09-25T22:04:11.666Z,32.08
2022-09-25T22:06:43.752Z,32.60
2022-09-25T22:09:14.344Z,33.72
2022-09-25T22:11:43.574Z,34.20
2022-09-25T22:14:16.134Z,35.05
2022-09-25T22:16:46.326Z,44.42
2022-09-25T22:19:16.465Z,43.92
2022-09-25T22:21:47.454Z,38.60
2022-09-25T22:24:16.161Z,30.15
2022-09-25T22:26:46.081Z,29.70
2022-09-25T22:29:14.793Z,29.88
2022-09-25T22:31:44.396Z,36.03
2022-09-25T22:34:18.291Z,31.85
2022-09-25T22:36:48.781Z,30.75
2022-09-25T22:39:18.964Z,36.72
2022-09-25T22:41:51.457Z,31.45
2022-09-25T22:44:19.959Z,29.67
2022-09-25T22:46:48.144Z,34.95
2022-09-25T22:49:16.465Z,31.33
2022-09-25T22:51:44.768Z,32.17
2022-09-25T22:54:15.488Z,29.70
2022-09-25T22:56:44.138Z,32.17
2022-09-25T22:59:16.181Z,33.60
2022-09-25T23:01:47.995Z,34.92
2022-09-25T23:04:17.625Z,31.20
2022-09-25T23:06:46.405Z,30.75
2022-09-25T23:09:17.809Z,34.10
2022-09-25T23:11:46.593Z,31.63
2022-09-25T23:14:17.638Z,34.05
2022-09-25T23:16:46.717Z,31.33
2022-09-25T23:19:15.607Z,28.38
2022-09-25T23:21:44.016Z,30.92
2022-09-25T23:24:14.284Z,28.77
2022-09-25T23:26:43.948Z,25.27
2022-09-25T23:29:13.134Z,26.60
2022-09-25T23:31:42.359Z,22.85
2022-09-25T23:34:11.228Z,26.08
2022-09-25T23:36:39.743Z,24.73
2022-09-25T23:39:09.938Z,24.10
2022-09-25T23:41:39.634Z,23.17
2022-09-25T23:44:11.542Z,24.45
2022-09-25T23:46:42.067Z,22.13
2022-09-25T23:49:11.262Z,22.20
2022-09-25T23:51:39.809Z,23.10
2022-09-25T23:54:08.010Z,19.33
2022-09-25T23:56:37.158Z,21.52
2022-09-25T23:59:06.455Z,21.55
